Terminal Aerodrome Forecast
Issued by NWS Cleveland, OH

Home | Current Version | Previous Version | Text Only | Print | Product List | Glossary On
Versions: 1 2 3 4 5 6 7 8 9 10 11 12 13 14 15 16 17 18 19 20 21
000
FTUS41 KCLE 210557 CCA
TAFTOL
TAF COR
KTOL 210557Z 2106/2206 21014G22KT P6SM SCT250 WS020/23045KT
     FM211400 23015G28KT P6SM SCT100 BKN250
     FM212200 27012G20KT P6SM SCT015 OVC035
      TEMPO 2122/2201 OVC015
     FM220300 30012KT P6SM FEW020 SCT100=

USA.gov is the U.S. government's official web portal to all federal, state and local government web resources and services.